sensor_id;sensor_type;location;lat;lon;timestamp;temperature;humidity
2855;DHT22;1435;49.472;10.940;2022-07-06T00:01:33;21.00;63.40
2855;DHT22;1435;49.472;10.940;2022-07-06T00:06:35;20.90;64.20
2855;DHT22;1435;49.472;10.940;2022-07-06T00:11:38;20.90;64.40
2855;DHT22;1435;49.472;10.940;2022-07-06T00:16:40;20.80;64.50
2855;DHT22;1435;49.472;10.940;2022-07-06T00:21:41;20.80;64.90
2855;DHT22;1435;49.472;10.940;2022-07-06T00:26:45;20.70;65.20
2855;DHT22;1435;49.472;10.940;2022-07-06T00:31:46;20.70;65.50
2855;DHT22;1435;49.472;10.940;2022-07-06T00:36:48;20.60;65.70
2855;DHT22;1435;49.472;10.940;2022-07-06T00:41:51;20.50;66.20
2855;DHT22;1435;49.472;10.940;2022-07-06T00:46:53;20.50;66.50
2855;DHT22;1435;49.472;10.940;2022-07-06T00:51:54;20.40;67.20
2855;DHT22;1435;49.472;10.940;2022-07-06T00:56:58;20.30;67.30
2855;DHT22;1435;49.472;10.940;2022-07-06T01:02:00;20.30;67.80
2855;DHT22;1435;49.472;10.940;2022-07-06T01:07:02;20.20;68.10
2855;DHT22;1435;49.472;10.940;2022-07-06T01:12:06;20.20;68.50
2855;DHT22;1435;49.472;10.940;2022-07-06T01:17:09;20.10;68.70
2855;DHT22;1435;49.472;10.940;2022-07-06T01:22:12;20.00;68.80
2855;DHT22;1435;49.472;10.940;2022-07-06T01:27:14;20.00;69.20
2855;DHT22;1435;49.472;10.940;2022-07-06T01:32:16;20.00;69.80
2855;DHT22;1435;49.472;10.940;2022-07-06T01:37:19;19.90;70.10
2855;DHT22;1435;49.472;10.940;2022-07-06T01:42:20;19.80;70.20
2855;DHT22;1435;49.472;10.940;2022-07-06T01:47:22;19.80;70.60
2855;DHT22;1435;49.472;10.940;2022-07-06T01:52:25;19.70;70.80
2855;DHT22;1435;49.472;10.940;2022-07-06T01:57:27;19.60;71.20
2855;DHT22;1435;49.472;10.940;2022-07-06T02:02:29;19.60;71.70
2855;DHT22;1435;49.472;10.940;2022-07-06T02:07:32;19.50;71.90
2855;DHT22;1435;49.472;10.940;2022-07-06T02:12:33;19.40;72.60
2855;DHT22;1435;49.472;10.940;2022-07-06T02:17:35;19.40;72.60
2855;DHT22;1435;49.472;10.940;2022-07-06T02:22:38;19.30;73.00
2855;DHT22;1435;49.472;10.940;2022-07-06T02:27:40;19.20;73.40
2855;DHT22;1435;49.472;10.940;2022-07-06T02:32:42;19.10;73.70
2855;DHT22;1435;49.472;10.940;2022-07-06T02:37:45;19.00;73.80
2855;DHT22;1435;49.472;10.940;2022-07-06T02:42:46;19.00;74.30
2855;DHT22;1435;49.472;10.940;2022-07-06T02:47:48;19.00;74.70
2855;DHT22;1435;49.472;10.940;2022-07-06T02:52:52;19.00;75.00
2855;DHT22;1435;49.472;10.940;2022-07-06T02:57:55;19.00;75.20
2855;DHT22;1435;49.472;10.940;2022-07-06T03:02:57;18.90;75.60
2855;DHT22;1435;49.472;10.940;2022-07-06T03:08:00;18.90;75.50
2855;DHT22;1435;49.472;10.940;2022-07-06T03:13:01;18.80;75.60
2855;DHT22;1435;49.472;10.940;2022-07-06T03:18:03;18.80;75.40
2855;DHT22;1435;49.472;10.940;2022-07-06T03:23:06;18.80;75.50
2855;DHT22;1435;49.472;10.940;2022-07-06T03:28:08;18.80;75.70
2855;DHT22;1435;49.472;10.940;2022-07-06T03:33:09;18.70;75.70
2855;DHT22;1435;49.472;10.940;2022-07-06T03:38:13;18.70;75.70
2855;DHT22;1435;49.472;10.940;2022-07-06T03:43:14;18.70;75.80
2855;DHT22;1435;49.472;10.940;2022-07-06T03:48:16;18.60;76.20
2855;DHT22;1435;49.472;10.940;2022-07-06T03:53:19;18.60;77.30
2855;DHT22;1435;49.472;10.940;2022-07-06T03:58:21;18.60;76.90
2855;DHT22;1435;49.472;10.940;2022-07-06T04:03:22;18.60;76.40
2855;DHT22;1435;49.472;10.940;2022-07-06T04:08:25;18.60;76.70
2855;DHT22;1435;49.472;10.940;2022-07-06T04:13:27;18.60;76.50
2855;DHT22;1435;49.472;10.940;2022-07-06T04:18:29;18.50;76.60
2855;DHT22;1435;49.472;10.940;2022-07-06T04:23:32;18.50;76.60
2855;DHT22;1435;49.472;10.940;2022-07-06T04:28:33;18.50;76.70
2855;DHT22;1435;49.472;10.940;2022-07-06T04:33:35;18.50;76.90
2855;DHT22;1435;49.472;10.940;2022-07-06T04:38:38;18.50;77.30
2855;DHT22;1435;49.472;10.940;2022-07-06T04:43:40;18.50;77.60
2855;DHT22;1435;49.472;10.940;2022-07-06T04:48:41;18.50;77.90
2855;DHT22;1435;49.472;10.940;2022-07-06T04:53:44;18.50;78.70
2855;DHT22;1435;49.472;10.940;2022-07-06T04:58:47;18.60;78.20
2855;DHT22;1435;49.472;10.940;2022-07-06T05:03:48;18.50;78.20
2855;DHT22;1435;49.472;10.940;2022-07-06T05:08:51;18.50;78.50
2855;DHT22;1435;49.472;10.940;2022-07-06T05:13:53;18.60;78.90
2855;DHT22;1435;49.472;10.940;2022-07-06T05:18:55;18.60;79.10
2855;DHT22;1435;49.472;10.940;2022-07-06T05:23:58;18.60;78.70
2855;DHT22;1435;49.472;10.940;2022-07-06T05:29:00;18.60;78.80
2855;DHT22;1435;49.472;10.940;2022-07-06T05:34:01;18.70;79.30
2855;DHT22;1435;49.472;10.940;2022-07-06T05:39:04;18.70;79.40
2855;DHT22;1435;49.472;10.940;2022-07-06T05:44:06;18.80;79.50
2855;DHT22;1435;49.472;10.940;2022-07-06T05:49:08;18.80;79.90
2855;DHT22;1435;49.472;10.940;2022-07-06T05:54:28;18.80;80.40
2855;DHT22;1435;49.472;10.940;2022-07-06T05:59:30;18.70;80.80
2855;DHT22;1435;49.472;10.940;2022-07-06T06:04:32;18.70;81.50
2855;DHT22;1435;49.472;10.940;2022-07-06T06:09:35;18.80;80.60
2855;DHT22;1435;49.472;10.940;2022-07-06T06:14:36;18.90;80.20
2855;DHT22;1435;49.472;10.940;2022-07-06T06:19:38;18.90;80.50
2855;DHT22;1435;49.472;10.940;2022-07-06T06:24:41;19.00;80.20
2855;DHT22;1435;49.472;10.940;2022-07-06T06:29:43;19.10;80.10
2855;DHT22;1435;49.472;10.940;2022-07-06T06:34:45;19.10;80.90
2855;DHT22;1435;49.472;10.940;2022-07-06T06:39:49;19.10;79.70
2855;DHT22;1435;49.472;10.940;2022-07-06T06:44:51;19.20;79.60
2855;DHT22;1435;49.472;10.940;2022-07-06T06:49:53;19.20;79.60
2855;DHT22;1435;49.472;10.940;2022-07-06T06:54:56;19.30;79.00
2855;DHT22;1435;49.472;10.940;2022-07-06T06:59:58;19.30;79.30
2855;DHT22;1435;49.472;10.940;2022-07-06T07:04:59;19.40;80.40
2855;DHT22;1435;49.472;10.940;2022-07-06T07:10:03;19.50;79.70
2855;DHT22;1435;49.472;10.940;2022-07-06T07:15:06;19.50;79.50
2855;DHT22;1435;49.472;10.940;2022-07-06T07:20:09;19.60;78.80
2855;DHT22;1435;49.472;10.940;2022-07-06T07:25:13;19.70;77.90
2855;DHT22;1435;49.472;10.940;2022-07-06T07:30:14;19.70;78.60
2855;DHT22;1435;49.472;10.940;2022-07-06T07:35:16;19.80;78.20
2855;DHT22;1435;49.472;10.940;2022-07-06T07:40:19;19.90;78.20
2855;DHT22;1435;49.472;10.940;2022-07-06T07:45:22;20.00;79.10
2855;DHT22;1435;49.472;10.940;2022-07-06T07:50:23;20.00;78.90
2855;DHT22;1435;49.472;10.940;2022-07-06T07:55:28;20.10;77.40
2855;DHT22;1435;49.472;10.940;2022-07-06T08:00:30;20.20;76.80
2855;DHT22;1435;49.472;10.940;2022-07-06T08:05:31;20.30;76.60
2855;DHT22;1435;49.472;10.940;2022-07-06T08:10:36;20.40;75.30
2855;DHT22;1435;49.472;10.940;2022-07-06T08:15:38;20.50;73.60
2855;DHT22;1435;49.472;10.940;2022-07-06T08:20:40;20.50;74.70
2855;DHT22;1435;49.472;10.940;2022-07-06T08:25:43;20.60;75.40
2855;DHT22;1435;49.472;10.940;2022-07-06T08:30:45;20.70;73.10
2855;DHT22;1435;49.472;10.940;2022-07-06T08:35:47;20.70;73.80
2855;DHT22;1435;49.472;10.940;2022-07-06T08:40:51;20.80;73.00
2855;DHT22;1435;49.472;10.940;2022-07-06T08:45:54;20.90;71.00
2855;DHT22;1435;49.472;10.940;2022-07-06T08:50:55;20.90;72.30
2855;DHT22;1435;49.472;10.940;2022-07-06T08:55:59;21.00;73.20
2855;DHT22;1435;49.472;10.940;2022-07-06T09:01:01;21.00;71.90
2855;DHT22;1435;49.472;10.940;2022-07-06T09:06:04;21.10;71.80
2855;DHT22;1435;49.472;10.940;2022-07-06T09:11:09;21.10;72.10
2855;DHT22;1435;49.472;10.940;2022-07-06T09:16:11;21.20;71.10
2855;DHT22;1435;49.472;10.940;2022-07-06T09:21:22;21.30;71.90
2855;DHT22;1435;49.472;10.940;2022-07-06T09:26:26;21.40;71.00
2855;DHT22;1435;49.472;10.940;2022-07-06T09:31:28;21.40;69.60
2855;DHT22;1435;49.472;10.940;2022-07-06T09:36:41;21.50;69.10
2855;DHT22;1435;49.472;10.940;2022-07-06T09:41:45;21.60;69.10
2855;DHT22;1435;49.472;10.940;2022-07-06T09:46:47;21.70;68.50
2855;DHT22;1435;49.472;10.940;2022-07-06T09:51:50;21.60;68.10
2855;DHT22;1435;49.472;10.940;2022-07-06T09:56:56;21.70;69.40
2855;DHT22;1435;49.472;10.940;2022-07-06T10:01:59;21.70;68.60
2855;DHT22;1435;49.472;10.940;2022-07-06T10:07:01;21.80;69.50
2855;DHT22;1435;49.472;10.940;2022-07-06T10:12:05;21.80;69.70
2855;DHT22;1435;49.472;10.940;2022-07-06T10:17:12;21.80;69.20
2855;DHT22;1435;49.472;10.940;2022-07-06T10:22:14;21.90;68.80
2855;DHT22;1435;49.472;10.940;2022-07-06T10:27:19;21.90;66.50
2855;DHT22;1435;49.472;10.940;2022-07-06T10:32:22;22.00;65.80
2855;DHT22;1435;49.472;10.940;2022-07-06T10:37:26;22.10;66.00
2855;DHT22;1435;49.472;10.940;2022-07-06T10:42:46;22.10;66.60
2855;DHT22;1435;49.472;10.940;2022-07-06T10:48:15;22.30;63.90
2855;DHT22;1435;49.472;10.940;2022-07-06T10:53:21;22.30;64.80
2855;DHT22;1435;49.472;10.940;2022-07-06T10:58:40;22.40;66.40
2855;DHT22;1435;49.472;10.940;2022-07-06T11:03:43;22.40;66.30
2855;DHT22;1435;49.472;10.940;2022-07-06T11:08:55;22.50;65.20
2855;DHT22;1435;49.472;10.940;2022-07-06T11:14:01;22.60;65.20
2855;DHT22;1435;49.472;10.940;2022-07-06T11:19:05;22.70;64.80
2855;DHT22;1435;49.472;10.940;2022-07-06T11:24:09;22.70;64.80
2855;DHT22;1435;49.472;10.940;2022-07-06T11:29:13;22.70;64.40
2855;DHT22;1435;49.472;10.940;2022-07-06T11:34:18;22.70;65.30
2855;DHT22;1435;49.472;10.940;2022-07-06T11:39:20;22.80;63.40
2855;DHT22;1435;49.472;10.940;2022-07-06T11:44:23;22.90;63.90
2855;DHT22;1435;49.472;10.940;2022-07-06T11:49:25;23.00;63.80
2855;DHT22;1435;49.472;10.940;2022-07-06T11:54:27;23.00;61.40
2855;DHT22;1435;49.472;10.940;2022-07-06T11:59:32;23.10;62.20
2855;DHT22;1435;49.472;10.940;2022-07-06T12:04:36;23.10;61.40
2855;DHT22;1435;49.472;10.940;2022-07-06T12:09:40;23.10;62.90
2855;DHT22;1435;49.472;10.940;2022-07-06T12:14:44;23.20;61.80
2855;DHT22;1435;49.472;10.940;2022-07-06T12:19:52;23.20;60.30
2855;DHT22;1435;49.472;10.940;2022-07-06T12:24:54;23.30;62.20
2855;DHT22;1435;49.472;10.940;2022-07-06T12:30:08;23.30;62.60
2855;DHT22;1435;49.472;10.940;2022-07-06T12:35:10;23.30;62.60
2855;DHT22;1435;49.472;10.940;2022-07-06T12:40:13;23.40;61.30
2855;DHT22;1435;49.472;10.940;2022-07-06T12:45:16;23.40;61.60
2855;DHT22;1435;49.472;10.940;2022-07-06T12:50:18;23.50;61.80
2855;DHT22;1435;49.472;10.940;2022-07-06T12:55:25;23.50;58.70
2855;DHT22;1435;49.472;10.940;2022-07-06T13:00:43;23.60;59.00
2855;DHT22;1435;49.472;10.940;2022-07-06T13:05:49;23.60;58.80
2855;DHT22;1435;49.472;10.940;2022-07-06T13:10:50;23.80;59.80
2855;DHT22;1435;49.472;10.940;2022-07-06T13:15:53;23.90;58.80
2855;DHT22;1435;49.472;10.940;2022-07-06T13:20:55;23.90;58.80
2855;DHT22;1435;49.472;10.940;2022-07-06T13:25:57;23.90;58.70
2855;DHT22;1435;49.472;10.940;2022-07-06T13:31:00;23.80;58.70
2855;DHT22;1435;49.472;10.940;2022-07-06T13:36:01;23.80;59.20
2855;DHT22;1435;49.472;10.940;2022-07-06T13:41:03;23.90;59.10
2855;DHT22;1435;49.472;10.940;2022-07-06T13:46:07;23.90;59.10
2855;DHT22;1435;49.472;10.940;2022-07-06T13:51:11;24.00;58.40
2855;DHT22;1435;49.472;10.940;2022-07-06T13:56:12;24.10;55.80
2855;DHT22;1435;49.472;10.940;2022-07-06T14:01:15;24.20;57.40
2855;DHT22;1435;49.472;10.940;2022-07-06T14:06:18;24.30;56.90
2855;DHT22;1435;49.472;10.940;2022-07-06T14:11:20;24.30;58.00
2855;DHT22;1435;49.472;10.940;2022-07-06T14:16:23;24.30;57.40
2855;DHT22;1435;49.472;10.940;2022-07-06T14:21:24;24.40;56.20
2855;DHT22;1435;49.472;10.940;2022-07-06T14:26:26;24.50;56.00
2855;DHT22;1435;49.472;10.940;2022-07-06T14:31:29;24.40;55.70
2855;DHT22;1435;49.472;10.940;2022-07-06T14:36:31;24.40;55.50
2855;DHT22;1435;49.472;10.940;2022-07-06T14:41:34;24.50;55.20
2855;DHT22;1435;49.472;10.940;2022-07-06T14:46:36;24.50;55.30
2855;DHT22;1435;49.472;10.940;2022-07-06T14:51:37;24.50;55.40
2855;DHT22;1435;49.472;10.940;2022-07-06T14:56:39;24.60;54.70
2855;DHT22;1435;49.472;10.940;2022-07-06T15:01:43;24.60;54.00
2855;DHT22;1435;49.472;10.940;2022-07-06T15:06:45;24.70;54.70
2855;DHT22;1435;49.472;10.940;2022-07-06T15:11:47;24.80;54.90
2855;DHT22;1435;49.472;10.940;2022-07-06T15:16:51;24.90;54.30
2855;DHT22;1435;49.472;10.940;2022-07-06T15:21:53;25.00;52.80
2855;DHT22;1435;49.472;10.940;2022-07-06T15:26:54;25.10;53.70
2855;DHT22;1435;49.472;10.940;2022-07-06T15:31:58;25.00;53.10
2855;DHT22;1435;49.472;10.940;2022-07-06T15:36:59;25.00;51.60
2855;DHT22;1435;49.472;10.940;2022-07-06T15:42:01;25.00;52.50
2855;DHT22;1435;49.472;10.940;2022-07-06T15:47:06;25.10;51.20
2855;DHT22;1435;49.472;10.940;2022-07-06T15:52:08;25.20;51.00
2855;DHT22;1435;49.472;10.940;2022-07-06T15:57:10;25.20;52.10
2855;DHT22;1435;49.472;10.940;2022-07-06T16:02:13;25.20;51.50
2855;DHT22;1435;49.472;10.940;2022-07-06T16:07:14;25.20;51.00
2855;DHT22;1435;49.472;10.940;2022-07-06T16:12:16;25.20;49.30
2855;DHT22;1435;49.472;10.940;2022-07-06T16:17:19;25.20;49.00
2855;DHT22;1435;49.472;10.940;2022-07-06T16:22:21;25.40;48.20
2855;DHT22;1435;49.472;10.940;2022-07-06T16:27:46;25.30;47.90
2855;DHT22;1435;49.472;10.940;2022-07-06T16:32:49;25.20;49.50
2855;DHT22;1435;49.472;10.940;2022-07-06T16:37:51;25.20;48.80
2855;DHT22;1435;49.472;10.940;2022-07-06T16:42:54;25.20;48.70
2855;DHT22;1435;49.472;10.940;2022-07-06T16:47:57;25.20;48.50
2855;DHT22;1435;49.472;10.940;2022-07-06T16:52:59;25.40;48.30
2855;DHT22;1435;49.472;10.940;2022-07-06T16:58:01;25.50;48.60
2855;DHT22;1435;49.472;10.940;2022-07-06T17:03:04;25.60;48.10
2855;DHT22;1435;49.472;10.940;2022-07-06T17:08:06;25.70;48.00
2855;DHT22;1435;49.472;10.940;2022-07-06T17:13:08;25.70;46.10
2855;DHT22;1435;49.472;10.940;2022-07-06T17:18:11;25.80;46.30
2855;DHT22;1435;49.472;10.940;2022-07-06T17:23:15;25.90;46.20
2855;DHT22;1435;49.472;10.940;2022-07-06T17:28:17;25.90;45.90
2855;DHT22;1435;49.472;10.940;2022-07-06T17:33:20;25.70;46.30
2855;DHT22;1435;49.472;10.940;2022-07-06T17:38:22;25.60;46.60
2855;DHT22;1435;49.472;10.940;2022-07-06T17:43:23;25.50;47.30
2855;DHT22;1435;49.472;10.940;2022-07-06T17:48:26;25.40;48.00
2855;DHT22;1435;49.472;10.940;2022-07-06T17:53:28;25.30;48.10
2855;DHT22;1435;49.472;10.940;2022-07-06T17:58:30;25.20;48.10
2855;DHT22;1435;49.472;10.940;2022-07-06T18:03:33;24.90;48.40
2855;DHT22;1435;49.472;10.940;2022-07-06T18:08:34;24.70;49.20
2855;DHT22;1435;49.472;10.940;2022-07-06T18:13:36;24.60;49.50
2855;DHT22;1435;49.472;10.940;2022-07-06T18:18:40;24.40;50.30
2855;DHT22;1435;49.472;10.940;2022-07-06T18:23:42;24.30;50.60
2855;DHT22;1435;49.472;10.940;2022-07-06T18:28:43;24.10;50.60
2855;DHT22;1435;49.472;10.940;2022-07-06T18:33:46;24.00;51.30
2855;DHT22;1435;49.472;10.940;2022-07-06T18:38:48;23.80;51.60
2855;DHT22;1435;49.472;10.940;2022-07-06T18:43:51;23.70;51.60
2855;DHT22;1435;49.472;10.940;2022-07-06T18:48:54;23.60;51.90
2855;DHT22;1435;49.472;10.940;2022-07-06T18:53:56;23.50;52.20
2855;DHT22;1435;49.472;10.940;2022-07-06T18:58:57;23.40;52.50
2855;DHT22;1435;49.472;10.940;2022-07-06T19:04:01;23.30;52.60
2855;DHT22;1435;49.472;10.940;2022-07-06T19:09:03;23.20;52.90
2855;DHT22;1435;49.472;10.940;2022-07-06T19:14:05;23.10;53.00
2855;DHT22;1435;49.472;10.940;2022-07-06T19:19:09;23.00;53.10
2855;DHT22;1435;49.472;10.940;2022-07-06T19:24:11;22.90;53.30
2855;DHT22;1435;49.472;10.940;2022-07-06T19:29:12;22.80;53.60
2855;DHT22;1435;49.472;10.940;2022-07-06T19:34:16;22.70;53.70
2855;DHT22;1435;49.472;10.940;2022-07-06T19:39:17;22.60;54.10
2855;DHT22;1435;49.472;10.940;2022-07-06T19:44:19;22.60;54.70
2855;DHT22;1435;49.472;10.940;2022-07-06T19:49:22;22.40;54.50
2855;DHT22;1435;49.472;10.940;2022-07-06T19:54:24;22.30;54.30
2855;DHT22;1435;49.472;10.940;2022-07-06T19:59:26;22.20;54.50
2855;DHT22;1435;49.472;10.940;2022-07-06T20:04:29;22.10;54.50
2855;DHT22;1435;49.472;10.940;2022-07-06T20:09:31;22.10;54.70
2855;DHT22;1435;49.472;10.940;2022-07-06T20:14:33;21.90;54.80
2855;DHT22;1435;49.472;10.940;2022-07-06T20:19:36;21.90;55.20
2855;DHT22;1435;49.472;10.940;2022-07-06T20:24:38;21.80;55.40
2855;DHT22;1435;49.472;10.940;2022-07-06T20:29:40;21.60;55.70
2855;DHT22;1435;49.472;10.940;2022-07-06T20:34:43;21.60;55.70
2855;DHT22;1435;49.472;10.940;2022-07-06T20:39:45;21.40;55.80
2855;DHT22;1435;49.472;10.940;2022-07-06T20:44:47;21.30;56.00
2855;DHT22;1435;49.472;10.940;2022-07-06T20:49:50;21.20;56.10
2855;DHT22;1435;49.472;10.940;2022-07-06T20:54:52;21.10;56.10
2855;DHT22;1435;49.472;10.940;2022-07-06T20:59:53;21.00;56.40
2855;DHT22;1435;49.472;10.940;2022-07-06T21:04:56;20.90;56.80
2855;DHT22;1435;49.472;10.940;2022-07-06T21:09:58;20.70;57.20
2855;DHT22;1435;49.472;10.940;2022-07-06T21:15:00;20.60;57.50
2855;DHT22;1435;49.472;10.940;2022-07-06T21:20:03;20.50;57.60
2855;DHT22;1435;49.472;10.940;2022-07-06T21:25:07;20.40;57.70
2855;DHT22;1435;49.472;10.940;2022-07-06T21:30:09;20.30;57.80
2855;DHT22;1435;49.472;10.940;2022-07-06T21:35:12;20.20;57.90
2855;DHT22;1435;49.472;10.940;2022-07-06T21:40:14;20.10;58.10
2855;DHT22;1435;49.472;10.940;2022-07-06T21:45:15;20.00;58.30
2855;DHT22;1435;49.472;10.940;2022-07-06T21:50:18;19.90;58.90
2855;DHT22;1435;49.472;10.940;2022-07-06T21:55:20;19.80;59.30
2855;DHT22;1435;49.472;10.940;2022-07-06T22:00:22;19.60;59.20
2855;DHT22;1435;49.472;10.940;2022-07-06T22:05:25;19.60;59.40
2855;DHT22;1435;49.472;10.940;2022-07-06T22:10:27;19.50;59.70
2855;DHT22;1435;49.472;10.940;2022-07-06T22:15:30;19.30;60.00
2855;DHT22;1435;49.472;10.940;2022-07-06T22:20:33;19.20;60.20
2855;DHT22;1435;49.472;10.940;2022-07-06T22:25:35;19.20;60.30
2855;DHT22;1435;49.472;10.940;2022-07-06T22:30:37;19.00;60.70
2855;DHT22;1435;49.472;10.940;2022-07-06T22:35:40;19.00;60.90
2855;DHT22;1435;49.472;10.940;2022-07-06T22:40:41;18.90;61.20
2855;DHT22;1435;49.472;10.940;2022-07-06T22:46:02;18.80;61.60
2855;DHT22;1435;49.472;10.940;2022-07-06T22:51:06;18.70;62.20
2855;DHT22;1435;49.472;10.940;2022-07-06T22:56:08;18.60;62.10
2855;DHT22;1435;49.472;10.940;2022-07-06T23:01:11;18.50;62.20
2855;DHT22;1435;49.472;10.940;2022-07-06T23:06:15;18.50;62.70
2855;DHT22;1435;49.472;10.940;2022-07-06T23:11:17;18.50;62.70
2855;DHT22;1435;49.472;10.940;2022-07-06T23:16:20;18.30;62.90
2855;DHT22;1435;49.472;10.940;2022-07-06T23:21:23;18.30;63.30
2855;DHT22;1435;49.472;10.940;2022-07-06T23:26:26;18.30;63.50
2855;DHT22;1435;49.472;10.940;2022-07-06T23:31:27;18.20;63.80
2855;DHT22;1435;49.472;10.940;2022-07-06T23:36:30;18.20;64.50
2855;DHT22;1435;49.472;10.940;2022-07-06T23:41:32;18.20;64.80
2855;DHT22;1435;49.472;10.940;2022-07-06T23:46:34;18.00;65.00
2855;DHT22;1435;49.472;10.940;2022-07-06T23:51:36;18.00;65.40
2855;DHT22;1435;49.472;10.940;2022-07-06T23:56:37;17.90;65.70
